Time;durP1;ratioP1;P1;durP2;ratioP2;P2;SDS_P1;SDS_P2;PMS_P1;PMS_P2;Temp;Humidity;BMP_temperature;BMP_pressure;BME280_temperature;BME280_humidity;BME280_pressure;Samples;Min_cycle;Max_cycle;Signal;HPM_P1;HPM_P2
2022/04/13 04:47:13;;;;;;;0.93;0.53;;;;;;;4.13;85.67;99472.39;1729301;82;21220;-43
2022/04/13 04:49:43;;;;;;;2.37;0.75;;;;;;;4.12;85.58;99473.25;1685975;84;21529;-36
2022/04/13 04:52:10;;;;;;;0.95;0.70;;;;;;;4.11;85.63;99471.05;1652523;84;21136;-43
2022/04/13 04:54:37;;;;;;;1.85;1.35;;;;;;;4.11;85.77;99490.47;1685184;84;21018;-44
2022/04/13 04:57:04;;;;;;;2.65;1.17;;;;;;;4.13;85.97;99472.39;1671094;85;21025;-36
2022/04/13 04:59:31;;;;;;;1.98;1.10;;;;;;;4.13;86.05;99474.98;1640448;83;21514;-43
2022/04/13 05:01:58;;;;;;;1.10;0.62;;;;;;;4.15;86.17;99476.73;1666485;85;21636;-43
2022/04/13 05:04:26;;;;;;;1.80;0.60;;;;;;;4.18;86.14;99470.73;1668661;83;21048;-44
2022/04/13 05:06:53;;;;;;;0.95;0.80;;;;;;;4.20;86.07;99475.50;1668022;84;21042;-43
2022/04/13 05:09:22;;;;;;;0.70;0.70;;;;;;;4.23;86.06;99476.81;1666387;85;21548;-43
2022/04/13 05:11:51;;;;;;;1.77;0.80;;;;;;;4.24;85.95;99475.56;1663612;85;21594;-43
2022/04/13 05:14:20;;;;;;;3.55;1.00;;;;;;;4.25;85.86;99476.00;1663275;85;21048;-44
2022/04/13 05:16:49;;;;;;;0.62;0.62;;;;;;;4.24;85.82;99482.03;1663195;85;22630;-36
2022/04/13 05:19:16;;;;;;;3.25;1.62;;;;;;;4.25;85.95;99477.72;1677508;84;21089;-36
2022/04/13 05:21:44;;;;;;;1.80;0.72;;;;;;;4.25;86.03;99478.59;1677873;84;21094;-35
2022/04/13 05:24:11;;;;;;;1.47;1.02;;;;;;;4.26;86.15;99479.45;1677195;83;21532;-44
2022/04/13 05:26:38;;;;;;;1.05;0.70;;;;;;;4.26;86.50;99479.03;1684043;84;21092;-36
2022/04/13 05:29:05;;;;;;;3.02;0.57;;;;;;;4.25;86.50;99494.12;1680911;84;21031;-36
2022/04/13 05:31:32;;;;;;;0.70;0.70;;;;;;;4.22;86.67;99482.42;1680050;84;21030;-38
2022/04/13 05:33:58;;;;;;;1.67;0.93;;;;;;;4.21;86.90;99484.56;1683521;83;21535;-42
2022/04/13 05:36:25;;;;;;;1.65;0.95;;;;;;;4.19;87.01;99483.69;1672299;84;21102;-36
2022/04/13 05:38:54;;;;;;;2.00;1.15;;;;;;;4.19;87.19;99480.23;1671909;84;21073;-42
2022/04/13 05:41:20;;;;;;;2.80;0.93;;;;;;;4.17;87.35;99495.73;1639920;84;21033;-40
2022/04/13 05:43:47;;;;;;;3.52;1.00;;;;;;;4.16;87.49;99496.58;1676962;83;21050;-35
2022/04/13 05:46:14;;;;;;;1.20;0.78;;;;;;;4.17;87.82;99482.78;1669239;83;21004;-44
2022/04/13 05:48:41;;;;;;;2.08;0.80;;;;;;;4.20;88.00;99488.44;1676212;83;21061;-43
2022/04/13 05:51:09;;;;;;;1.50;0.70;;;;;;;4.21;87.86;99484.56;1674100;85;21054;-44
2022/04/13 05:53:36;;;;;;;3.83;0.90;;;;;;;4.21;87.94;99487.16;1672029;84;21581;-36
2022/04/13 05:56:03;;;;;;;1.02;0.75;;;;;;;4.22;88.19;99487.59;1684363;85;21105;-36
2022/04/13 05:58:31;;;;;;;0.80;0.80;;;;;;;4.22;88.39;99487.59;1682657;84;21077;-36
2022/04/13 06:00:58;;;;;;;1.17;0.80;;;;;;;4.26;88.22;99491.11;1684667;84;21046;-43
2022/04/13 06:03:25;;;;;;;1.65;0.70;;;;;;;4.29;88.13;99487.28;1646397;84;21025;-43
2022/04/13 06:05:52;;;;;;;0.90;0.60;;;;;;;4.31;88.02;99484.70;1665536;84;21080;-36
2022/04/13 06:08:19;;;;;;;0.82;0.78;;;;;;;4.34;87.64;99496.38;1651673;84;21013;-36
2022/04/13 06:10:47;;;;;;;1.75;0.88;;;;;;;4.35;87.57;99491.63;1694814;84;21172;-35
2022/04/13 06:13:15;;;;;;;1.17;0.90;;;;;;;4.36;87.22;99492.97;1684546;84;21482;-36
2022/04/13 06:15:44;;;;;;;1.45;0.75;;;;;;;4.36;86.82;99484.33;1676494;84;21663;-36
2022/04/13 06:18:12;;;;;;;2.70;0.75;;;;;;;4.35;86.74;99493.83;1685873;84;21614;-35
2022/04/13 06:20:38;;;;;;;0.65;0.62;;;;;;;4.35;86.54;99498.11;1678492;84;21107;-36
2022/04/13 06:23:06;;;;;;;1.37;0.65;;;;;;;4.39;86.51;99498.59;1688518;83;21036;-35
2022/04/13 06:25:33;;;;;;;0.72;0.68;;;;;;;4.39;85.70;99482.63;1678730;84;21068;-38
2022/04/13 06:28:00;;;;;;;0.75;0.75;;;;;;;4.43;86.01;99485.70;1686368;84;21464;-37
2022/04/13 06:30:27;;;;;;;1.85;0.90;;;;;;;4.44;85.63;99480.97;1693078;84;22085;-36
2022/04/13 06:32:55;;;;;;;1.37;0.72;;;;;;;4.46;85.74;99483.14;1684255;84;21497;-35
2022/04/13 06:35:23;;;;;;;3.30;0.82;;;;;;;4.45;86.62;99489.17;1676729;85;21038;-35
2022/04/13 06:37:49;;;;;;;1.10;0.72;;;;;;;4.44;87.24;99486.58;1688931;84;21065;-35
2022/04/13 06:40:18;;;;;;;2.00;1.07;;;;;;;4.41;87.62;99478.36;1683705;84;21061;-35
2022/04/13 06:42:44;;;;;;;1.70;0.82;;;;;;;4.40;88.39;99488.25;1674753;85;21049;-36
2022/04/13 06:45:13;;;;;;;2.72;0.95;;;;;;;4.40;89.60;99479.61;1679301;85;20966;-36
2022/04/13 06:47:41;;;;;;;1.67;1.02;;;;;;;4.41;89.86;99477.48;1683850;84;21478;-36
2022/04/13 06:50:08;;;;;;;5.40;3.00;;;;;;;4.40;90.26;99483.06;1687647;85;21010;-35
2022/04/13 06:52:36;;;;;;;1.12;0.70;;;;;;;4.38;91.33;99481.33;1687925;85;21029;-35
2022/04/13 06:55:05;;;;;;;1.98;0.60;;;;;;;4.36;92.05;99475.27;1687862;84;21485;-36
2022/04/13 06:57:33;;;;;;;2.30;0.95;;;;;;;4.34;92.96;99481.70;1720532;83;21021;-36
2022/04/13 07:00:01;;;;;;;0.60;0.60;;;;;;;4.35;93.41;99482.17;1720177;83;21029;-36
2022/04/13 07:02:29;;;;;;;3.90;0.90;;;;;;;4.36;93.67;99485.63;1720138;83;20988;-36
2022/04/13 07:04:56;;;;;;;6.37;0.98;;;;;;;4.35;94.44;99492.53;1694684;83;20993;-36
2022/04/13 07:07:23;;;;;;;1.80;1.00;;;;;;;4.37;93.96;99492.54;1720410;83;21067;-35
2022/04/13 07:09:51;;;;;;;1.50;1.15;;;;;;;4.36;94.75;99491.67;1702183;83;21082;-36
2022/04/13 07:12:18;;;;;;;2.50;1.52;;;;;;;4.37;95.17;99496.00;1711711;83;21017;-35
2022/04/13 07:14:44;;;;;;;1.72;1.00;;;;;;;4.37;95.71;99488.23;1691700;83;21045;-36
2022/04/13 07:17:12;;;;;;;1.57;1.12;;;;;;;4.36;96.07;99492.97;1673045;83;21110;-36
2022/04/13 07:19:39;;;;;;;1.25;0.90;;;;;;;4.38;96.80;99498.16;1700208;83;21511;-35
2022/04/13 07:22:06;;;;;;;2.08;1.07;;;;;;;4.38;97.58;99502.05;1698956;83;21039;-36
2022/04/13 07:24:34;;;;;;;1.45;0.80;;;;;;;4.37;98.02;99502.90;1719873;83;21120;-35
2022/04/13 07:27:02;;;;;;;0.60;0.60;;;;;;;4.35;97.95;99500.30;1697180;84;21504;-35
2022/04/13 07:29:29;;;;;;;1.67;1.00;;;;;;;4.34;98.61;99505.44;1714064;83;21033;-36
2022/04/13 07:31:56;;;;;;;0.90;0.70;;;;;;;4.34;99.46;99514.07;1691767;83;21591;-36
2022/04/13 07:34:24;;;;;;;1.00;0.78;;;;;;;4.33;99.98;99505.00;1687353;83;21033;-36
2022/04/13 07:36:50;;;;;;;1.25;0.72;;;;;;;4.35;100.00;99499.00;1686690;83;21354;-36
2022/04/13 07:39:17;;;;;;;2.42;0.90;;;;;;;4.36;100.00;99494.27;1690428;83;21064;-35
2022/04/13 07:41:44;;;;;;;1.52;0.70;;;;;;;4.37;100.00;99498.59;1690845;83;21092;-36
2022/04/13 07:44:14;;;;;;;1.17;0.70;;;;;;;4.39;100.00;99490.40;1684178;83;21101;-35
2022/04/13 07:46:42;;;;;;;1.20;0.90;;;;;;;4.39;100.00;99498.17;1669941;83;21033;-36
2022/04/13 07:49:09;;;;;;;0.55;0.50;;;;;;;4.39;100.00;99499.89;1681105;85;21041;-36
2022/04/13 07:51:40;;;;;;;0.75;0.60;;;;;;;4.40;100.00;99501.20;1694738;83;21540;-36
2022/04/13 07:54:07;;;;;;;4.80;0.90;;;;;;;4.41;100.00;99493.03;1689304;83;21058;-43
2022/04/13 07:56:35;;;;;;;2.30;0.80;;;;;;;4.40;100.00;99487.38;1675131;83;21077;-43
2022/04/13 07:59:04;;;;;;;1.67;1.35;;;;;;;4.41;100.00;99487.42;1674078;85;21079;-43
2022/04/13 08:01:31;;;;;;;1.10;0.80;;;;;;;4.44;100.00;99493.05;1701875;83;21076;-43
2022/04/13 08:03:58;;;;;;;1.10;0.75;;;;;;;4.46;100.00;99494.80;1701065;83;21548;-43
2022/04/13 08:06:28;;;;;;;2.33;1.70;;;;;;;4.48;100.00;99498.72;1699606;82;21077;-42
2022/04/13 08:08:56;;;;;;;1.87;0.65;;;;;;;4.50;100.00;99494.42;1665853;83;21100;-43
2022/04/13 08:11:24;;;;;;;1.35;0.82;;;;;;;4.53;100.00;99491.45;1696129;83;21080;-43
2022/04/13 08:13:52;;;;;;;1.37;0.82;;;;;;;4.52;99.95;99497.87;1676437;83;21203;-42
2022/04/13 08:16:19;;;;;;;1.00;0.90;;;;;;;4.50;100.00;99482.33;1683830;83;21589;-43
2022/04/13 08:18:47;;;;;;;1.25;0.53;;;;;;;4.50;100.00;99477.15;1693118;83;21552;-43
2022/04/13 08:21:14;;;;;;;1.65;0.88;;;;;;;4.49;99.90;99476.71;1695625;83;21030;-43
2022/04/13 08:23:41;;;;;;;3.77;1.37;;;;;;;4.49;100.00;99479.73;1695405;83;21097;-43
2022/04/13 08:26:09;;;;;;;1.37;0.88;;;;;;;4.48;100.00;99484.47;1701072;83;21033;-43
2022/04/13 08:28:37;;;;;;;1.50;0.80;;;;;;;4.48;100.00;99475.41;1677741;84;21084;-42
2022/04/13 08:31:04;;;;;;;1.65;1.02;;;;;;;4.47;99.85;99482.74;1685475;84;21080;-43
2022/04/13 08:33:32;;;;;;;1.15;0.70;;;;;;;4.48;99.83;99478.86;1692798;83;21178;-35
2022/04/13 08:35:59;;;;;;;1.05;0.90;;;;;;;4.49;99.39;99492.69;1687009;83;21060;-34
2022/04/13 08:38:26;;;;;;;1.05;0.80;;;;;;;4.48;98.50;99484.47;1694924;83;21033;-35
2022/04/13 08:40:58;;;;;;;1.25;0.88;;;;;;;4.48;99.54;99496.13;1686340;84;21108;-35
2022/04/13 08:43:43;;;;;;;1.10;0.88;;;;;;;4.49;99.46;99486.20;1692666;84;21505;-43
2022/04/13 08:46:18;;;;;;;2.45;0.98;;;;;;;4.48;99.94;99503.47;1662435;84;21095;-43
2022/04/13 08:48:46;;;;;;;0.98;0.88;;;;;;;4.50;100.00;99504.78;1681499;84;21025;-43
2022/04/13 08:51:16;;;;;;;1.55;0.90;;;;;;;4.48;99.68;99497.00;1671307;84;21426;-43
2022/04/13 08:53:44;;;;;;;0.90;0.82;;;;;;;4.46;99.52;99503.86;1679481;84;21468;-36
2022/04/13 08:56:13;;;;;;;1.30;0.80;;;;;;;4.44;100.00;99491.33;1683230;83;21040;-34
2022/04/13 08:59:07;;;;;;;0.88;0.80;;;;;;;4.43;100.00;99501.68;1685771;84;21021;-35
2022/04/13 09:01:44;;;;;;;3.52;1.25;;;;;;;4.41;100.00;99501.67;1669188;84;21054;-35
2022/04/13 09:04:12;;;;;;;1.55;1.05;;;;;;;4.39;100.00;99492.13;1646337;85;21071;-35
2022/04/13 09:06:39;;;;;;;1.37;1.20;;;;;;;4.37;100.00;99497.30;1664988;85;21042;-35
2022/04/13 09:09:19;;;;;;;2.17;1.70;;;;;;;4.37;100.00;99504.20;1672741;84;21061;-35
2022/04/13 09:11:46;;;;;;;2.15;1.12;;;;;;;4.36;100.00;99499.88;1681228;84;21057;-35
2022/04/13 09:14:13;;;;;;;2.35;1.07;;;;;;;4.35;100.00;99505.87;1690461;84;21073;-36
2022/04/13 09:16:41;;;;;;;1.62;1.20;;;;;;;4.31;100.00;99502.40;1636347;85;21750;-35
2022/04/13 09:19:09;;;;;;;1.57;0.72;;;;;;;4.30;100.00;99500.66;1671696;84;21072;-36
2022/04/13 09:21:37;;;;;;;1.05;0.98;;;;;;;4.28;100.00;99493.28;1680113;85;21044;-36
2022/04/13 09:24:07;;;;;;;6.47;1.10;;;;;;;4.26;100.00;99493.27;1671072;85;21061;-35
2022/04/13 09:26:36;;;;;;;1.80;1.52;;;;;;;4.26;100.00;99482.05;1633220;84;21664;-36
2022/04/13 09:29:03;;;;;;;2.20;1.30;;;;;;;4.25;100.00;99472.55;1681273;85;21002;-36
2022/04/13 09:31:31;;;;;;;5.12;2.55;;;;;;;4.25;100.00;99464.77;1673692;84;21049;-35
2022/04/13 09:33:57;;;;;;;1.40;1.00;;;;;;;4.26;100.00;99479.45;1682530;84;21718;-36
2022/04/13 09:36:25;;;;;;;1.92;1.30;;;;;;;4.27;100.00;99487.66;1655219;84;21080;-36
2022/04/13 09:38:54;;;;;;;1.27;1.17;;;;;;;4.30;100.00;99481.67;1688544;83;20998;-35
2022/04/13 09:41:33;;;;;;;2.22;1.17;;;;;;;4.27;100.00;99485.94;1669793;84;21066;-35
2022/04/13 09:44:00;;;;;;;2.65;1.22;;;;;;;4.27;100.00;99483.78;1643676;84;21077;-35
2022/04/13 09:46:30;;;;;;;2.10;1.40;;;;;;;4.27;100.00;99482.48;1691522;84;21077;-35
2022/04/13 09:49:17;;;;;;;1.67;1.10;;;;;;;4.26;100.00;99494.99;1683735;84;21577;-34
2022/04/13 09:51:51;;;;;;;2.05;1.05;;;;;;;4.26;100.00;99515.70;1660650;84;21610;-35
2022/04/13 09:54:19;;;;;;;1.52;1.10;;;;;;;4.25;100.00;99499.73;1662203;84;21010;-35
2022/04/13 09:56:47;;;;;;;1.25;0.80;;;;;;;4.25;100.00;99488.95;1662874;84;21045;-36
2022/04/13 09:59:30;;;;;;;1.25;0.80;;;;;;;4.23;100.00;99491.95;1689170;84;21061;-36
2022/04/13 10:01:57;;;;;;;1.00;0.75;;;;;;;4.22;100.00;99504.42;1664059;85;21116;-35
2022/04/13 10:16:22;;;;;;;3.40;1.20;;;;;;;4.54;100.00;99505.27;1818964;77;23533;-41
2022/04/13 10:18:57;;;;;;;5.12;0.90;;;;;;;4.51;100.00;99530.69;1800500;78;21059;-42
2022/04/13 10:21:46;;;;;;;4.35;1.37;;;;;;;4.50;100.00;99501.76;1803095;78;21544;-43
2022/04/13 10:24:29;;;;;;;1.20;0.93;;;;;;;4.51;100.00;99508.67;1819010;77;21135;-44
2022/04/13 10:27:17;;;;;;;1.20;0.95;;;;;;;4.51;100.00;99517.73;1779802;79;20999;-44
2022/04/13 10:29:48;;;;;;;1.00;0.95;;;;;;;4.51;100.00;99520.33;1778713;78;21043;-42
2022/04/13 10:32:25;;;;;;;0.90;0.70;;;;;;;4.52;100.00;99524.69;1776296;79;21429;-42
2022/04/13 10:34:55;;;;;;;0.78;0.78;;;;;;;4.53;100.00;99520.37;1795901;78;21688;-35
2022/04/13 10:37:23;;;;;;;1.60;0.80;;;;;;;4.56;100.00;99521.69;1798077;78;21010;-34
2022/04/13 10:39:52;;;;;;;1.80;1.20;;;;;;;4.61;100.00;99526.93;1794374;78;21164;-36
2022/04/13 10:42:20;;;;;;;1.10;1.00;;;;;;;4.64;100.00;99521.37;1769691;80;21009;-43
2022/04/13 10:45:03;;;;;;;0.95;0.90;;;;;;;4.67;100.00;99525.27;1759238;79;21050;-44
2022/04/13 10:47:41;;;;;;;0.80;0.80;;;;;;;4.74;100.00;99524.91;1789160;79;21049;-44
2022/04/13 10:50:08;;;;;;;1.70;0.82;;;;;;;4.77;100.00;99528.42;1780573;80;21084;-44
2022/04/13 10:53:05;;;;;;;0.57;0.50;;;;;;;4.80;100.00;99521.95;1767670;80;21121;-45
2022/04/13 10:55:35;;;;;;;1.37;0.80;;;;;;;4.84;100.00;99534.97;1781586;80;21116;-36
2022/04/13 10:58:37;;;;;;;3.60;0.82;;;;;;;4.87;100.00;99524.61;1781020;80;21069;-44
2022/04/13 11:01:09;;;;;;;3.75;0.70;;;;;;;4.88;100.00;99532.43;1793362;78;21573;-44
2022/04/13 11:03:36;;;;;;;1.52;1.00;;;;;;;4.93;100.00;99516.91;1769262;80;21052;-37
2022/04/13 11:06:05;;;;;;;2.58;0.78;;;;;;;4.94;100.00;99514.34;1767413;78;21127;-36
2022/04/13 11:08:56;;;;;;;0.78;0.75;;;;;;;5.00;100.00;99521.32;1794715;80;21009;-39
2022/04/13 11:11:24;;;;;;;0.60;0.60;;;;;;;5.02;100.00;99526.95;1784948;78;21525;-37
2022/04/13 11:13:53;;;;;;;1.17;0.80;;;;;;;5.06;100.00;99517.48;1770132;80;21045;-37
2022/04/13 11:16:22;;;;;;;1.70;0.95;;;;;;;5.06;99.50;99514.90;1785704;78;21568;-36
2022/04/13 11:19:12;;;;;;;0.75;0.75;;;;;;;5.12;100.00;99517.55;1790594;80;21001;-36
2022/04/13 11:21:57;;;;;;;1.15;1.05;;;;;;;5.19;100.00;99508.97;1794006;80;21036;-44
2022/04/13 11:24:40;;;;;;;1.45;0.90;;;;;;;5.26;100.00;99517.66;1767805;80;21045;-44
